createdAt,value
2019-05-19T00:02:22.137Z,2.97
2019-05-19T00:04:50.532Z,2.70
2019-05-19T00:07:18.926Z,2.90
2019-05-19T00:09:47.388Z,3.07
2019-05-19T00:12:15.756Z,3.30
2019-05-19T00:14:44.150Z,3.37
2019-05-19T00:17:12.727Z,3.23
2019-05-19T00:19:41.106Z,2.80
2019-05-19T00:22:09.497Z,2.50
2019-05-19T00:24:38.189Z,3.27
2019-05-19T00:27:06.584Z,2.63
2019-05-19T00:29:35.277Z,3.33
2019-05-19T00:32:03.700Z,3.00
2019-05-19T00:34:32.102Z,3.20
2019-05-19T00:37:00.499Z,3.50
2019-05-19T00:39:28.939Z,3.50
2019-05-19T00:41:57.312Z,3.00
2019-05-19T00:44:25.708Z,3.23
2019-05-19T00:46:54.131Z,3.20
2019-05-19T00:49:22.847Z,3.13
2019-05-19T00:51:51.245Z,3.60
2019-05-19T00:54:20.058Z,3.67
2019-05-19T00:56:49.899Z,4.00
2019-05-19T00:59:19.335Z,3.80
2019-05-19T01:01:47.756Z,3.40
2019-05-19T01:04:16.150Z,3.80
2019-05-19T01:06:44.912Z,3.73
2019-05-19T01:09:13.335Z,4.20
2019-05-19T01:11:41.724Z,3.83
2019-05-19T01:14:10.122Z,4.07
2019-05-19T01:16:38.537Z,4.00
2019-05-19T01:19:06.934Z,3.90
2019-05-19T01:21:35.663Z,3.97
2019-05-19T01:24:04.352Z,4.17
2019-05-19T01:26:32.756Z,4.73
2019-05-19T01:29:01.148Z,4.53
2019-05-19T01:31:29.615Z,4.40
2019-05-19T01:33:57.988Z,3.97
2019-05-19T01:36:26.700Z,4.63
2019-05-19T01:38:55.373Z,4.03
2019-05-19T01:41:23.768Z,4.93
2019-05-19T01:43:52.147Z,4.77
2019-05-19T01:46:20.557Z,4.50
2019-05-19T01:48:48.952Z,4.17
2019-05-19T01:51:17.350Z,3.83
2019-05-19T01:53:45.843Z,3.87
2019-05-19T01:56:14.233Z,4.23
2019-05-19T01:58:42.628Z,3.80
2019-05-19T02:01:11.092Z,3.57
2019-05-19T02:03:39.435Z,4.13
2019-05-19T02:06:07.831Z,3.80
2019-05-19T02:08:36.465Z,3.90
2019-05-19T02:11:04.855Z,4.17
2019-05-19T02:13:33.245Z,3.80
2019-05-19T02:16:01.671Z,6.13
2019-05-19T02:18:30.056Z,5.10
2019-05-19T02:20:58.448Z,4.30
2019-05-19T02:23:26.941Z,4.30
2019-05-19T02:25:55.332Z,3.60
2019-05-19T02:28:23.770Z,4.10
2019-05-19T02:30:52.187Z,4.60
2019-05-19T02:33:20.580Z,4.27
2019-05-19T02:35:48.967Z,4.37
2019-05-19T02:38:17.384Z,4.60
2019-05-19T02:40:48.837Z,4.30
2019-05-19T02:43:18.644Z,4.27
2019-05-19T02:45:49.434Z,4.10
2019-05-19T02:48:19.563Z,5.13
2019-05-19T02:50:52.706Z,4.53
2019-05-19T02:53:20.204Z,4.80
2019-05-19T02:55:49.531Z,5.17
2019-05-19T02:58:18.575Z,4.70
2019-05-19T03:00:46.994Z,4.90
2019-05-19T03:03:15.375Z,4.63
2019-05-19T03:05:44.075Z,4.80
2019-05-19T03:08:12.490Z,4.63
2019-05-19T03:10:40.894Z,5.03
2019-05-19T03:13:09.280Z,3.97
2019-05-19T03:15:38.122Z,4.10
2019-05-19T03:18:06.492Z,3.83
2019-05-19T03:20:34.901Z,3.87
2019-05-19T03:23:03.310Z,3.10
2019-05-19T03:25:31.698Z,4.20
2019-05-19T03:28:00.084Z,4.00
2019-05-19T03:30:46.319Z,4.40
2019-05-19T03:33:28.604Z,4.17
2019-05-19T03:35:57.037Z,4.33
2019-05-19T03:38:25.427Z,5.23
2019-05-19T03:40:53.825Z,4.60
2019-05-19T03:43:22.234Z,4.40
2019-05-19T03:45:50.633Z,4.20
2019-05-19T03:48:19.019Z,5.27
2019-05-19T03:50:47.504Z,5.92
2019-05-19T03:53:15.882Z,5.13
2019-05-19T03:55:44.271Z,4.90
2019-05-19T03:58:12.683Z,5.13
2019-05-19T04:00:41.146Z,5.90
2019-05-19T04:03:09.527Z,6.30
2019-05-19T04:05:38.011Z,5.80
2019-05-19T04:08:06.414Z,5.47
2019-05-19T04:10:34.800Z,5.43
2019-05-19T04:13:03.253Z,5.47
2019-05-19T04:15:31.664Z,6.00
2019-05-19T04:18:00.028Z,5.93
2019-05-19T04:20:28.457Z,5.33
2019-05-19T04:22:56.852Z,5.00
2019-05-19T04:25:25.264Z,5.10
2019-05-19T04:27:53.749Z,5.93
2019-05-19T04:30:22.283Z,5.80
2019-05-19T04:32:50.677Z,6.07
2019-05-19T04:35:19.096Z,5.33
2019-05-19T04:37:47.486Z,6.37
2019-05-19T04:40:16.338Z,5.80
2019-05-19T04:42:44.752Z,6.20
2019-05-19T04:45:13.619Z,4.80
2019-05-19T04:47:41.993Z,5.03
2019-05-19T04:50:10.891Z,6.00
2019-05-19T04:52:39.283Z,5.57
2019-05-19T04:55:08.016Z,6.10
2019-05-19T04:57:36.985Z,6.10
2019-05-19T05:00:07.114Z,6.50
2019-05-19T05:02:35.510Z,6.53
2019-05-19T05:05:04.572Z,6.43
2019-05-19T05:07:32.963Z,6.47
2019-05-19T05:10:01.359Z,6.13
2019-05-19T05:12:29.773Z,5.23
2019-05-19T05:14:58.145Z,5.87
2019-05-19T05:17:26.537Z,6.13
2019-05-19T05:19:55.023Z,5.87
2019-05-19T05:22:23.439Z,5.83
2019-05-19T05:24:51.823Z,6.10
2019-05-19T05:27:20.323Z,6.50
2019-05-19T05:29:48.755Z,6.40
2019-05-19T05:32:17.110Z,6.77
2019-05-19T05:34:45.545Z,6.47
2019-05-19T05:37:13.935Z,6.43
2019-05-19T05:39:42.327Z,6.40
2019-05-19T05:42:10.812Z,6.60
2019-05-19T05:44:39.203Z,5.97
2019-05-19T05:47:07.599Z,5.43
2019-05-19T05:49:36.029Z,4.93
2019-05-19T05:52:04.413Z,5.63
2019-05-19T05:54:32.807Z,6.67
2019-05-19T05:57:01.217Z,6.90
2019-05-19T05:59:29.608Z,6.23
2019-05-19T06:01:58.003Z,7.00
2019-05-19T06:04:26.493Z,6.43
2019-05-19T06:06:54.888Z,6.20
2019-05-19T06:09:23.272Z,6.57
2019-05-19T06:11:51.681Z,6.00
2019-05-19T06:14:20.111Z,5.70
2019-05-19T06:16:48.499Z,6.53
2019-05-19T06:19:16.917Z,6.47
2019-05-19T06:21:45.313Z,6.57
2019-05-19T06:24:13.702Z,6.27
2019-05-19T06:26:42.534Z,6.77
2019-05-19T06:29:10.926Z,33.60
2019-05-19T06:31:39.332Z,20.83
2019-05-19T06:34:09.991Z,9.67
2019-05-19T06:36:38.356Z,7.40
2019-05-19T06:39:06.908Z,7.93
2019-05-19T06:41:35.588Z,7.43
2019-05-19T06:44:04.324Z,7.77
2019-05-19T06:46:32.713Z,6.90
2019-05-19T06:49:01.131Z,8.40
2019-05-19T06:51:29.516Z,7.67
2019-05-19T06:53:58.179Z,9.30
2019-05-19T06:56:27.076Z,9.00
2019-05-19T06:58:55.473Z,9.37
2019-05-19T07:01:23.868Z,9.90
2019-05-19T07:03:52.299Z,8.73
2019-05-19T07:06:20.695Z,9.00
2019-05-19T07:08:49.086Z,9.40
2019-05-19T07:11:17.516Z,10.60
2019-05-19T07:13:45.911Z,9.37
2019-05-19T07:16:14.322Z,10.23
2019-05-19T07:18:43.529Z,10.80
2019-05-19T07:21:11.922Z,9.57
2019-05-19T07:23:40.316Z,9.50
2019-05-19T07:26:08.747Z,10.90
2019-05-19T07:28:37.139Z,11.63
2019-05-19T07:31:05.923Z,11.33
2019-05-19T07:33:34.344Z,11.13
2019-05-19T07:36:03.072Z,11.20
2019-05-19T07:38:31.474Z,13.03
2019-05-19T07:40:59.909Z,12.53
2019-05-19T07:43:28.308Z,12.83
2019-05-19T07:45:56.986Z,14.53
2019-05-19T07:48:25.774Z,13.23
2019-05-19T07:50:54.184Z,13.73
2019-05-19T07:53:22.655Z,13.03
2019-05-19T07:55:51.084Z,15.40
2019-05-19T07:58:19.493Z,19.73
2019-05-19T08:00:47.895Z,15.27
2019-05-19T08:03:16.398Z,13.53
2019-05-19T08:05:44.811Z,14.17
2019-05-19T08:08:13.211Z,14.43
2019-05-19T08:10:41.736Z,13.48
2019-05-19T08:13:10.376Z,12.60
2019-05-19T08:15:38.782Z,13.10
2019-05-19T08:18:07.535Z,15.30
2019-05-19T08:20:35.940Z,15.00
2019-05-19T08:23:04.353Z,13.97
2019-05-19T08:25:32.790Z,15.70
2019-05-19T08:28:08.388Z,15.93
2019-05-19T08:30:31.385Z,17.23
2019-05-19T08:32:59.807Z,16.23
2019-05-19T08:35:28.204Z,14.83
2019-05-19T08:37:56.608Z,17.30
2019-05-19T08:40:25.009Z,16.37
2019-05-19T08:42:53.685Z,17.47
2019-05-19T08:45:22.153Z,16.63
2019-05-19T08:47:50.662Z,15.90
2019-05-19T08:50:19.187Z,15.93
2019-05-19T08:52:47.588Z,17.77
2019-05-19T08:55:16.178Z,14.90
2019-05-19T08:57:45.655Z,15.45
2019-05-19T09:00:14.386Z,17.77
2019-05-19T09:02:42.904Z,19.30
2019-05-19T09:05:11.313Z,16.73
2019-05-19T09:07:39.708Z,17.03
2019-05-19T09:10:09.166Z,18.83
2019-05-19T09:12:38.398Z,17.87
2019-05-19T09:15:07.642Z,15.77
2019-05-19T09:17:36.068Z,15.83
2019-05-19T09:20:05.617Z,15.20
2019-05-19T09:22:34.289Z,16.53
2019-05-19T09:25:02.748Z,17.10
2019-05-19T09:27:31.155Z,18.63
2019-05-19T09:29:59.552Z,17.70
2019-05-19T09:32:28.046Z,15.73
2019-05-19T09:34:56.441Z,15.57
2019-05-19T09:37:25.164Z,15.73
2019-05-19T09:39:53.657Z,13.47
2019-05-19T09:42:22.065Z,14.17
2019-05-19T09:44:50.588Z,15.07
2019-05-19T09:47:19.050Z,13.40
2019-05-19T09:49:47.449Z,12.40
2019-05-19T09:52:17.186Z,13.27
2019-05-19T09:54:46.106Z,14.40
2019-05-19T09:57:14.736Z,15.43
2019-05-19T09:59:43.130Z,13.67
2019-05-19T10:02:11.553Z,15.87
2019-05-19T10:04:39.956Z,15.60
2019-05-19T10:07:08.746Z,15.20
2019-05-19T10:09:41.028Z,13.73
2019-05-19T10:12:09.795Z,13.90
2019-05-19T10:14:38.207Z,12.90
2019-05-19T10:17:06.652Z,11.77
2019-05-19T10:19:35.126Z,15.33
2019-05-19T10:22:03.527Z,12.07
2019-05-19T10:24:32.114Z,10.67
2019-05-19T10:27:00.521Z,11.43
2019-05-19T10:29:28.972Z,11.70
2019-05-19T10:31:57.368Z,11.13
2019-05-19T10:34:25.771Z,10.23
2019-05-19T10:36:54.173Z,10.33
2019-05-19T10:39:22.588Z,7.70
2019-05-19T10:41:50.984Z,10.07
2019-05-19T10:44:19.382Z,9.30
2019-05-19T10:46:47.877Z,9.10
2019-05-19T10:49:16.271Z,8.30
2019-05-19T10:51:44.670Z,8.60
2019-05-19T10:54:13.088Z,8.13
2019-05-19T10:56:41.481Z,6.53
2019-05-19T10:59:09.877Z,6.83
2019-05-19T11:01:38.446Z,7.30
2019-05-19T11:04:06.940Z,4.70
2019-05-19T11:06:35.328Z,3.70
2019-05-19T11:09:05.088Z,4.47
2019-05-19T11:11:33.485Z,4.80
2019-05-19T11:14:01.946Z,4.63
2019-05-19T11:16:30.356Z,3.87
2019-05-19T11:18:58.786Z,4.33
2019-05-19T11:21:27.143Z,2.90
2019-05-19T11:23:55.846Z,3.10
2019-05-19T11:26:24.241Z,3.30
2019-05-19T11:28:52.627Z,3.37
2019-05-19T11:31:21.062Z,4.50
2019-05-19T11:33:49.458Z,3.63
2019-05-19T11:36:17.848Z,5.00
2019-05-19T11:38:46.553Z,4.63
2019-05-19T11:41:14.943Z,4.20
2019-05-19T11:43:43.341Z,4.67
2019-05-19T11:46:11.884Z,3.97
2019-05-19T11:48:40.275Z,4.07
2019-05-19T11:51:08.672Z,4.50
2019-05-19T11:53:37.168Z,3.73
2019-05-19T11:56:07.247Z,4.83
2019-05-19T11:58:35.685Z,4.53
2019-05-19T12:01:04.147Z,3.77
2019-05-19T12:03:32.549Z,3.87
2019-05-19T12:06:00.936Z,3.67
2019-05-19T12:08:29.356Z,3.30
2019-05-19T12:10:57.749Z,3.30
2019-05-19T12:13:26.209Z,3.50
2019-05-19T12:15:54.900Z,2.77
2019-05-19T12:18:23.290Z,3.43
2019-05-19T12:20:51.696Z,3.50
2019-05-19T12:23:20.098Z,3.00
2019-05-19T12:25:48.487Z,3.43
2019-05-19T12:28:16.879Z,2.70
2019-05-19T12:30:45.304Z,2.53
2019-05-19T12:33:13.688Z,2.70
2019-05-19T12:35:42.075Z,2.70
2019-05-19T12:38:10.492Z,2.50
2019-05-19T12:40:38.881Z,2.13
2019-05-19T12:43:07.564Z,2.43
2019-05-19T12:45:36.054Z,2.20
2019-05-19T12:48:04.436Z,2.30
2019-05-19T12:50:32.948Z,2.27
2019-05-19T12:53:01.386Z,2.23
2019-05-19T12:55:29.831Z,2.17
2019-05-19T12:57:58.216Z,2.07
2019-05-19T13:00:26.701Z,2.00
2019-05-19T13:02:55.116Z,2.20
2019-05-19T13:05:23.482Z,2.50
2019-05-19T13:07:52.612Z,2.20
2019-05-19T13:10:21.358Z,2.07
2019-05-19T13:12:49.755Z,1.93
2019-05-19T13:15:18.440Z,2.30
2019-05-19T13:17:46.830Z,2.27
2019-05-19T13:20:15.386Z,2.10
2019-05-19T13:22:43.848Z,2.30
2019-05-19T13:25:12.374Z,2.40
2019-05-19T13:27:40.757Z,2.43
2019-05-19T13:30:09.374Z,2.30
2019-05-19T13:32:37.758Z,2.10
2019-05-19T13:35:08.021Z,2.50
2019-05-19T13:37:36.456Z,2.80
2019-05-19T13:40:06.087Z,2.53
2019-05-19T13:42:34.478Z,2.30
2019-05-19T13:45:02.957Z,2.43
2019-05-19T13:47:31.354Z,2.20
2019-05-19T13:49:59.791Z,2.10
2019-05-19T13:52:28.237Z,2.27
2019-05-19T13:54:56.634Z,2.43
2019-05-19T13:57:25.396Z,2.63
2019-05-19T13:59:53.793Z,2.20
2019-05-19T14:02:22.189Z,2.53
2019-05-19T14:04:50.919Z,1.80
2019-05-19T14:07:19.341Z,2.53
2019-05-19T14:09:46.721Z,2.20
2019-05-19T14:12:15.048Z,2.40
2019-05-19T14:14:43.473Z,2.50
2019-05-19T14:17:11.864Z,2.50
2019-05-19T14:19:40.551Z,2.10
2019-05-19T14:22:08.969Z,2.50
2019-05-19T14:24:37.361Z,2.60
2019-05-19T14:27:05.822Z,2.40
2019-05-19T14:29:34.317Z,2.73
2019-05-19T14:32:02.907Z,2.40
2019-05-19T14:34:31.297Z,2.67
2019-05-19T14:36:59.775Z,3.00
2019-05-19T14:39:28.103Z,2.50
2019-05-19T14:41:58.198Z,3.00
2019-05-19T14:44:26.572Z,2.83
2019-05-19T14:46:54.963Z,3.20
2019-05-19T14:49:23.351Z,2.60
2019-05-19T14:51:51.847Z,2.40
2019-05-19T14:54:20.243Z,2.83
2019-05-19T14:56:48.636Z,2.43
2019-05-19T14:59:17.114Z,2.73
2019-05-19T15:01:45.511Z,2.67
2019-05-19T15:04:13.904Z,2.27
2019-05-19T15:06:42.323Z,2.57
2019-05-19T15:09:10.720Z,2.50
2019-05-19T15:11:39.617Z,2.60
2019-05-19T15:14:07.984Z,2.30
2019-05-19T15:16:36.379Z,2.73
2019-05-19T15:19:05.018Z,2.30
2019-05-19T15:21:33.441Z,2.60
2019-05-19T15:24:01.831Z,2.20
2019-05-19T15:26:30.222Z,2.47
2019-05-19T15:28:58.650Z,2.37
2019-05-19T15:31:27.040Z,2.30
2019-05-19T15:33:55.431Z,2.43
2019-05-19T15:36:23.861Z,2.70
2019-05-19T15:38:52.243Z,2.37
2019-05-19T15:41:20.635Z,3.40
2019-05-19T15:43:49.059Z,3.10
2019-05-19T15:46:18.254Z,3.53
2019-05-19T15:48:46.722Z,3.10
2019-05-19T15:51:27.533Z,3.10
2019-05-19T15:53:45.333Z,2.77
2019-05-19T15:56:13.722Z,2.83
2019-05-19T15:58:42.224Z,3.07
2019-05-19T16:01:10.619Z,3.70
2019-05-19T16:03:39.010Z,3.33
2019-05-19T16:06:07.508Z,3.80
2019-05-19T16:08:35.898Z,4.23
2019-05-19T16:11:04.297Z,3.30
2019-05-19T16:13:33.135Z,3.93
2019-05-19T16:16:01.537Z,4.40
2019-05-19T16:18:29.921Z,4.50
2019-05-19T16:20:58.425Z,3.97
2019-05-19T16:23:26.811Z,3.77
2019-05-19T16:25:55.204Z,4.00
2019-05-19T16:28:30.800Z,4.17
2019-05-19T16:30:54.037Z,3.47
2019-05-19T16:33:22.422Z,3.80
2019-05-19T16:35:50.838Z,3.10
2019-05-19T16:38:19.228Z,3.50
2019-05-19T16:40:47.619Z,3.30
2019-05-19T16:43:16.051Z,3.13
2019-05-19T16:45:44.707Z,3.43
2019-05-19T16:48:13.379Z,3.30
2019-05-19T16:50:41.858Z,3.37
2019-05-19T16:53:10.256Z,2.87
2019-05-19T16:55:38.647Z,2.87
2019-05-19T16:58:19.931Z,3.33
2019-05-19T17:00:37.299Z,3.13
2019-05-19T17:03:05.713Z,3.33
2019-05-19T17:05:34.289Z,2.90
2019-05-19T17:08:03.232Z,3.63
2019-05-19T17:10:31.615Z,3.20
2019-05-19T17:13:00.034Z,2.83
2019-05-19T17:15:28.424Z,2.87
2019-05-19T17:17:56.819Z,3.37
2019-05-19T17:20:25.378Z,3.30
2019-05-19T17:22:53.781Z,3.00
2019-05-19T17:25:22.167Z,3.47
2019-05-19T17:27:50.663Z,2.83
2019-05-19T17:30:20.865Z,2.80
2019-05-19T17:32:49.259Z,2.87
2019-05-19T17:35:17.998Z,2.67
2019-05-19T17:37:46.389Z,3.13
2019-05-19T17:40:15.821Z,3.00
2019-05-19T17:42:44.314Z,2.70
2019-05-19T17:45:13.134Z,2.83
2019-05-19T17:47:41.587Z,2.97
2019-05-19T17:50:10.605Z,3.00
2019-05-19T17:52:38.998Z,3.10
2019-05-19T17:55:08.827Z,3.50
2019-05-19T17:57:38.855Z,4.00
2019-05-19T18:00:10.132Z,3.90
2019-05-19T18:02:38.580Z,4.03
2019-05-19T18:05:07.459Z,4.73
2019-05-19T18:07:35.846Z,4.47
2019-05-19T18:10:06.799Z,4.93
2019-05-19T18:12:35.271Z,6.20
2019-05-19T18:15:05.159Z,4.97
2019-05-19T18:17:33.558Z,25.17
2019-05-19T18:20:01.979Z,18.73
2019-05-19T18:22:30.390Z,5.93
2019-05-19T18:24:58.765Z,3.50
2019-05-19T18:27:27.278Z,15.47
2019-05-19T18:29:55.931Z,8.20
2019-05-19T18:32:24.324Z,5.50
2019-05-19T18:34:52.885Z,4.90
2019-05-19T18:37:21.920Z,4.90
2019-05-19T18:39:50.662Z,5.20
2019-05-19T18:42:20.580Z,5.60
2019-05-19T18:44:49.125Z,5.23
2019-05-19T19:21:36.790Z,5.20
2019-05-19T19:24:05.182Z,5.30
2019-05-19T19:26:33.607Z,6.03
2019-05-19T19:29:02.010Z,6.23
2019-05-19T19:31:30.424Z,5.40
2019-05-19T19:33:58.828Z,8.10
2019-05-19T19:36:27.247Z,15.33
2019-05-19T19:38:55.644Z,6.30
2019-05-19T19:41:24.063Z,6.13
2019-05-19T19:43:52.461Z,6.53
2019-05-19T19:46:20.885Z,7.00
2019-05-19T19:48:49.290Z,6.90
2019-05-19T19:51:17.684Z,8.07
2019-05-19T19:53:46.100Z,8.10
2019-05-19T19:56:14.854Z,8.77
2019-05-19T19:58:43.260Z,43.77
2019-05-19T20:01:11.670Z,14.23
2019-05-19T20:03:40.760Z,9.97
2019-05-19T20:06:09.177Z,8.97
2019-05-19T20:08:37.612Z,12.33
2019-05-19T20:11:06.338Z,16.50
2019-05-19T20:13:35.132Z,15.37
2019-05-19T20:16:03.536Z,14.00
2019-05-19T20:18:31.944Z,13.08
2019-05-19T20:21:00.378Z,13.53
2019-05-19T20:23:28.782Z,12.20
2019-05-19T20:25:57.186Z,9.40
2019-05-19T20:28:25.686Z,10.37
2019-05-19T20:30:54.092Z,12.30
2019-05-19T20:33:22.511Z,10.83
2019-05-19T20:35:50.919Z,10.23
2019-05-19T20:38:19.348Z,8.53
2019-05-19T20:40:47.756Z,9.30
2019-05-19T20:43:16.175Z,10.80
2019-05-19T20:45:44.575Z,9.83
2019-05-19T20:48:12.990Z,10.00
2019-05-19T20:50:41.549Z,10.10
2019-05-19T20:53:10.242Z,11.57
2019-05-19T20:55:38.645Z,11.57
2019-05-19T20:58:07.070Z,18.90
2019-05-19T21:00:49.468Z,14.73
2019-05-19T21:03:05.620Z,13.17
2019-05-19T21:05:34.028Z,12.10
2019-05-19T21:08:02.457Z,11.80
2019-05-19T21:10:30.867Z,13.40
2019-05-19T21:12:59.531Z,13.63
2019-05-19T21:15:27.967Z,12.83
2019-05-19T21:17:56.365Z,16.20
2019-05-19T21:20:24.788Z,14.87
2019-05-19T21:22:53.195Z,14.20
2019-05-19T21:25:21.650Z,21.30
2019-05-19T21:27:50.048Z,19.30
2019-05-19T21:30:18.523Z,19.00
2019-05-19T21:32:46.931Z,20.27
2019-05-19T21:35:15.358Z,21.13
2019-05-19T21:37:43.765Z,21.30
2019-05-19T21:40:12.321Z,20.10
2019-05-19T21:42:40.737Z,29.63
2019-05-19T21:45:10.219Z,26.93
2019-05-19T21:47:38.693Z,21.47
2019-05-19T21:50:07.836Z,18.03
2019-05-19T21:52:36.256Z,20.37
2019-05-19T21:55:06.706Z,21.73
2019-05-19T21:57:35.116Z,23.10
2019-05-19T22:00:04.556Z,23.87
2019-05-19T22:02:32.957Z,22.63
2019-05-19T22:05:01.853Z,21.37
2019-05-19T22:07:44.782Z,21.23
2019-05-19T22:10:13.443Z,21.53
2019-05-19T22:12:41.856Z,23.23
2019-05-19T22:15:11.707Z,21.97
2019-05-19T22:17:40.104Z,19.50
2019-05-19T22:20:08.609Z,21.57
2019-05-19T22:22:37.015Z,19.17
2019-05-19T22:25:07.374Z,20.20
2019-05-19T22:27:35.780Z,18.90
2019-05-19T22:30:07.286Z,19.40
2019-05-19T22:32:35.688Z,20.37
2019-05-19T22:35:05.392Z,22.73
2019-05-19T22:37:33.794Z,20.80
2019-05-19T22:40:02.589Z,20.83
2019-05-19T22:42:31.204Z,18.27
2019-05-19T22:44:59.613Z,23.53
2019-05-19T22:47:28.386Z,20.90
2019-05-19T22:49:56.798Z,19.67
2019-05-19T22:52:25.218Z,21.47
2019-05-19T22:54:53.622Z,20.73
2019-05-19T22:57:22.300Z,19.47
2019-05-19T22:59:50.726Z,19.70
2019-05-19T23:02:19.413Z,20.40
2019-05-19T23:04:47.824Z,19.97
2019-05-19T23:07:16.240Z,17.20
2019-05-19T23:09:44.644Z,20.27
2019-05-19T23:12:13.377Z,21.13
2019-05-19T23:14:41.787Z,21.30
2019-05-19T23:17:10.207Z,21.60
2019-05-19T23:19:38.620Z,19.57
2019-05-19T23:22:07.085Z,22.20
2019-05-19T23:24:35.504Z,21.10
2019-05-19T23:27:04.262Z,23.33
2019-05-19T23:29:32.670Z,22.50
2019-05-19T23:32:07.046Z,20.90
2019-05-19T23:34:31.221Z,22.57
2019-05-19T23:36:59.921Z,19.87
2019-05-19T23:39:28.332Z,21.13
2019-05-19T23:41:56.746Z,22.70
2019-05-19T23:44:25.221Z,22.80
2019-05-19T23:46:53.898Z,23.37
2019-05-19T23:49:22.300Z,19.70
2019-05-19T23:51:50.725Z,20.67
2019-05-19T23:54:19.149Z,22.57
2019-05-19T23:56:47.576Z,20.83
2019-05-19T23:59:16.957Z,18.62
